createdAt,value
2023-05-09T00:00:01.234Z,73.3
2023-05-09T00:05:02.370Z,73.9
2023-05-09T00:10:01.431Z,70.4
2023-05-09T00:15:06.468Z,65.6
2023-05-09T00:20:01.254Z,63.6
2023-05-09T00:25:01.269Z,65.2
2023-05-09T00:30:02.348Z,62.4
2023-05-09T00:35:01.394Z,62.4
2023-05-09T00:40:01.204Z,50.4
2023-05-09T00:45:01.286Z,50.9
2023-05-09T00:50:02.330Z,52.0
2023-05-09T00:55:01.402Z,50.7
2023-05-09T01:00:01.200Z,51.7
2023-05-09T01:05:01.278Z,61.4
2023-05-09T01:10:01.302Z,59.2
2023-05-09T01:15:01.514Z,57.0
2023-05-09T01:20:01.249Z,60.6
2023-05-09T01:25:01.317Z,63.5
2023-05-09T01:40:02.094Z,52.4
2023-05-09T01:45:06.788Z,53.2
2023-05-09T01:50:01.744Z,55.9
2023-05-09T01:55:01.715Z,63.3
2023-05-09T02:00:01.898Z,69.3
2023-05-09T02:05:06.659Z,76.4
2023-05-09T02:10:06.708Z,82.3
2023-05-09T02:15:01.693Z,84.7
2023-05-09T02:20:01.965Z,83.1
2023-05-09T02:25:02.750Z,79.9
2023-05-09T02:35:01.828Z,74.4
2023-05-09T02:40:01.979Z,76.6
2023-05-09T02:50:02.611Z,75.8
2023-05-09T03:05:01.737Z,69.7
2023-05-09T03:10:01.560Z,66.9
2023-05-09T03:20:09.550Z,57.4
2023-05-09T03:25:01.718Z,57.4
2023-05-09T03:35:01.721Z,63.3
2023-05-09T03:40:01.839Z,66.7
2023-05-09T03:50:02.615Z,83.1
2023-05-09T03:55:01.680Z,86.4
2023-05-09T04:00:01.819Z,88.3
2023-05-09T04:05:01.758Z,82.2
2023-05-09T04:10:01.568Z,82.2
2023-05-09T04:20:01.669Z,83.5
2023-05-09T04:25:01.613Z,84.1
2023-05-09T04:30:01.491Z,92.1
2023-05-09T04:35:01.671Z,90.4
2023-05-09T04:50:01.552Z,91.8
2023-05-09T05:25:01.860Z,95.9
2023-05-09T05:35:06.766Z,101.3
2023-05-09T05:55:01.666Z,100.2
2023-05-09T06:05:01.631Z,94.3
2023-05-09T06:10:01.494Z,93.7
2023-05-09T06:20:01.789Z,92.2
2023-05-09T06:25:01.630Z,92.2
2023-05-09T06:30:14.533Z,91.9
2023-05-09T06:35:01.462Z,91.7
2023-05-09T06:40:01.793Z,92.7
2023-05-09T06:45:01.702Z,89.0
2023-05-09T06:50:01.606Z,92.2
2023-05-09T06:55:01.872Z,95.2
2023-05-09T07:00:01.868Z,101.4
2023-05-09T07:05:01.895Z,105.8
2023-05-09T07:10:12.433Z,118.3
2023-05-09T07:15:01.598Z,125.7
2023-05-09T07:20:01.713Z,129.3
2023-05-09T07:25:01.591Z,131.8
2023-05-09T07:30:02.479Z,134.6
2023-05-09T07:35:02.523Z,140.7
2023-05-09T07:40:01.717Z,149.2
2023-05-09T07:45:01.437Z,156.2
2023-05-09T07:50:01.720Z,164.2
2023-05-09T07:55:01.530Z,170.0
2023-05-09T08:00:01.769Z,167.4
2023-05-09T08:05:06.486Z,163.4
2023-05-09T08:10:02.440Z,162.9
2023-05-09T08:15:01.545Z,171.4
2023-05-09T08:20:01.680Z,170.8
2023-05-09T08:25:01.556Z,176.6
2023-05-09T08:30:01.474Z,179.8
2023-05-09T08:35:01.584Z,199.2
2023-05-09T08:40:01.645Z,197.5
2023-05-09T08:45:01.535Z,221.2
2023-05-09T08:50:02.900Z,242.4
2023-05-09T08:55:01.553Z,258.8
2023-05-09T09:00:01.669Z,266.6
2023-05-09T09:05:12.823Z,281.0
2023-05-09T09:10:01.317Z,281.8
2023-05-09T09:15:01.482Z,281.4
2023-05-09T09:20:01.619Z,286.2
2023-05-09T09:25:01.461Z,272.0
2023-05-09T09:30:01.335Z,272.3
2023-05-09T09:35:02.572Z,273.8
2023-05-09T09:40:01.701Z,274.0
2023-05-09T09:45:01.463Z,275.4
2023-05-09T09:50:01.948Z,291.1
2023-05-09T10:10:02.114Z,286.8
2023-05-09T10:15:01.825Z,283.8
2023-05-09T10:20:01.831Z,283.5
2023-05-09T10:25:01.885Z,278.1
2023-05-09T10:50:06.665Z,245.0
2023-05-09T10:55:01.835Z,243.1
2023-05-09T11:00:01.186Z,239.7
2023-05-09T11:05:01.376Z,237.6
2023-05-09T11:20:01.982Z,191.0
2023-05-09T11:25:01.764Z,185.2
2023-05-09T11:30:01.709Z,183.5
2023-05-09T11:35:06.882Z,178.8
2023-05-09T11:40:01.762Z,171.7
2023-05-09T11:45:01.829Z,164.4
2023-05-09T11:50:01.770Z,159.2
2023-05-09T11:55:02.173Z,152.3
2023-05-09T12:00:01.616Z,148.4
2023-05-09T12:10:01.749Z,146.6
2023-05-09T12:15:01.799Z,145.2
2023-05-09T12:20:01.736Z,145.1
2023-05-09T12:25:01.692Z,146.4
2023-05-09T12:35:01.795Z,150.8
2023-05-09T12:40:01.728Z,151.8
2023-05-09T12:45:01.724Z,155.2
2023-05-09T12:50:01.730Z,158.2
2023-05-09T12:55:01.652Z,159.5
2023-05-09T13:00:01.643Z,162.6
2023-05-09T13:05:01.576Z,188.2
2023-05-09T13:10:01.766Z,193.9
2023-05-09T13:15:01.852Z,196.0
2023-05-09T13:20:01.637Z,204.2
2023-05-09T13:25:01.721Z,207.9
2023-05-09T13:30:01.700Z,199.7
2023-05-09T13:35:01.628Z,211.2
2023-05-09T13:40:01.769Z,227.9
2023-05-09T13:45:01.558Z,242.0
2023-05-09T13:50:01.616Z,255.2
2023-05-09T13:55:01.613Z,259.2
2023-05-09T14:00:01.682Z,262.0
2023-05-09T14:05:06.841Z,260.7
2023-05-09T14:10:12.412Z,258.1
2023-05-09T14:15:01.674Z,258.6
2023-05-09T14:20:01.559Z,260.4
2023-05-09T14:25:01.665Z,263.4
2023-05-09T14:30:01.541Z,266.2
2023-05-09T14:35:01.667Z,270.2
2023-05-09T14:40:01.655Z,273.6
2023-05-09T14:45:01.739Z,271.7
2023-05-09T14:50:01.547Z,271.4
2023-05-09T14:55:01.645Z,275.0
2023-05-09T15:00:21.577Z,277.8
2023-05-09T15:05:01.589Z,279.4
2023-05-09T15:10:01.446Z,276.0
2023-05-09T15:15:01.567Z,261.0
2023-05-09T15:20:01.743Z,244.5
2023-05-09T15:25:05.445Z,224.3
2023-05-09T15:30:01.703Z,206.2
2023-05-09T15:35:01.619Z,205.3
2023-05-09T15:40:01.728Z,214.2
2023-05-09T15:45:01.607Z,222.5
2023-05-09T15:50:01.561Z,233.0
2023-05-09T15:55:02.652Z,246.4
2023-05-09T16:00:01.675Z,253.2
2023-05-09T16:05:01.474Z,258.2
2023-05-09T16:10:01.467Z,261.8
2023-05-09T16:20:01.808Z,269.3
2023-05-09T16:25:01.586Z,268.4
2023-05-09T16:30:01.657Z,267.2
2023-05-09T16:35:01.679Z,266.9
2023-05-09T16:40:02.038Z,264.0
2023-05-09T16:45:02.007Z,262.4
2023-05-09T16:50:01.436Z,260.7
2023-05-09T16:55:01.596Z,260.6
2023-05-09T17:00:01.812Z,260.7
2023-05-09T17:05:01.631Z,260.4
2023-05-09T17:15:01.579Z,259.8
2023-05-09T17:20:01.769Z,259.4
2023-05-09T17:25:01.515Z,253.6
2023-05-09T17:30:01.506Z,254.1
2023-05-09T17:50:01.425Z,237.4
2023-05-09T17:55:01.506Z,226.0
2023-05-09T18:10:02.415Z,183.8
2023-05-09T18:20:01.776Z,163.3
2023-05-09T18:25:01.482Z,162.0
2023-05-09T18:30:01.461Z,156.6
2023-05-09T18:35:01.469Z,156.3
2023-05-09T18:40:01.604Z,155.7
2023-05-09T18:45:01.426Z,156.3
2023-05-09T18:50:03.244Z,156.5
2023-05-09T18:55:01.468Z,164.2
2023-05-09T19:00:05.410Z,166.9
2023-05-09T19:05:06.567Z,175.4
2023-05-09T19:10:01.298Z,185.2
2023-05-09T19:15:01.348Z,193.1
2023-05-09T19:20:01.601Z,204.0
2023-05-09T19:25:06.598Z,211.7
2023-05-09T19:30:06.428Z,215.7
2023-05-09T19:35:01.443Z,216.8
2023-05-09T19:40:01.538Z,220.8
2023-05-09T19:45:01.356Z,218.2
2023-05-09T19:50:01.365Z,222.0
2023-05-09T20:00:01.586Z,222.4
2023-05-09T20:10:01.419Z,233.3
2023-05-09T20:15:01.472Z,241.4
2023-05-09T20:20:01.380Z,248.9
2023-05-09T20:25:01.410Z,257.0
2023-05-09T20:30:01.398Z,262.8
2023-05-09T20:35:01.473Z,264.4
2023-05-09T20:40:01.478Z,264.5
2023-05-09T20:45:01.500Z,265.4
2023-05-09T20:50:02.334Z,254.2
2023-05-09T21:00:01.512Z,256.1
2023-05-09T21:05:06.713Z,255.2
2023-05-09T21:10:01.281Z,251.0
2023-05-09T21:15:01.420Z,242.6
2023-05-09T21:20:01.448Z,244.6
2023-05-09T21:25:01.480Z,233.2
2023-05-09T21:30:01.499Z,221.1
2023-05-09T21:35:01.478Z,218.0
2023-05-09T21:40:04.869Z,213.2
2023-05-09T21:45:01.474Z,203.3
2023-05-09T21:50:01.361Z,198.9
2023-05-09T21:55:01.482Z,193.7
2023-05-09T22:00:01.706Z,182.8
2023-05-09T22:05:06.787Z,178.3
2023-05-09T22:15:01.413Z,176.6
2023-05-09T22:20:01.390Z,179.3
2023-05-09T22:25:01.545Z,183.2
2023-05-09T22:30:01.281Z,182.8
2023-05-09T22:35:01.545Z,188.6
2023-05-09T22:40:01.448Z,196.5
2023-05-09T22:45:01.390Z,193.3
2023-05-09T22:50:01.331Z,191.0
2023-05-09T22:55:01.402Z,200.0
2023-05-09T23:00:01.418Z,201.6
2023-05-09T23:05:01.472Z,203.0
2023-05-09T23:10:01.370Z,215.3
2023-05-09T23:20:02.517Z,223.9
2023-05-09T23:25:01.404Z,226.9
2023-05-09T23:30:01.437Z,215.5
2023-05-09T23:35:01.471Z,216.4
2023-05-09T23:40:01.381Z,206.8
2023-05-09T23:45:01.463Z,196.4
2023-05-09T23:50:06.332Z,188.2
2023-05-09T23:55:01.475Z,188.2
